Iturama, Brazil
Current Conditions -  °F | °C
As of 9:00 PM on Friday 19 Dec 2014 (Local Time) from SBSR Reporting Station
Clear Clear  
Wind Chill: 86°   Ceiling: Unl
Heat Index: 87°   Visibility: 6mi
Dew Point: 63°   Wind: 3mph
Humidity: 45%   Direction: 60°ENE
Pressure: 29.8"   Gusts: NA
Location:  19.73°S, 50.2°W
Report Text: SBSR 192300Z 06003KT CAVOK 30/17 Q1009
Loading
Personal Weather Stations






























Interactive Weather Map New forecast layout! Learn more

10-Day Weather Forecast

Advertisements
Track Severe Weather on mobile